Chesnee, South Carolina
Current Conditions -  °F | °C
As of 8:35 PM on Monday 22 Dec 2014 (Local Time) from KEHO Reporting Station
Haze Haze  
Wind Chill: 33°   Ceiling: 500
Heat Index: 37°   Visibility: 4mi
Dew Point: 37°   Wind: 6mph
Humidity: 97%   Direction: 20°NNE
Pressure: 30.05"   Gusts: NA
Location:  35.15°N, 81.86°W
Report Text: KEHO 230135Z AUTO 02005KT 4SM BR OVC005 03/03 A3005 RMK AO2 T00300025
Loading
Personal Weather Stations






























Interactive Weather Map New forecast layout! Learn more

10-Day Weather Forecast

Advertisements
Track Severe Weather on mobile